sensor_id;sensor_type;location;lat;lon;timestamp;temperature;humidity
22290;DHT22;11313;50.116;8.424;2023-10-13T00:00:38;23.60;62.70
22290;DHT22;11313;50.116;8.424;2023-10-13T00:03:06;23.60;62.70
22290;DHT22;11313;50.116;8.424;2023-10-13T00:05:33;23.60;62.70
22290;DHT22;11313;50.116;8.424;2023-10-13T00:08:00;23.60;62.70
22290;DHT22;11313;50.116;8.424;2023-10-13T00:10:30;23.60;62.70
22290;DHT22;11313;50.116;8.424;2023-10-13T00:12:56;23.60;62.70
22290;DHT22;11313;50.116;8.424;2023-10-13T00:15:47;23.60;62.70
22290;DHT22;11313;50.116;8.424;2023-10-13T00:18:29;23.60;62.70
22290;DHT22;11313;50.116;8.424;2023-10-13T00:21:02;23.60;62.70
22290;DHT22;11313;50.116;8.424;2023-10-13T00:23:43;23.60;62.70
22290;DHT22;11313;50.116;8.424;2023-10-13T00:26:21;23.60;62.60
22290;DHT22;11313;50.116;8.424;2023-10-13T00:29:00;23.60;62.70
22290;DHT22;11313;50.116;8.424;2023-10-13T00:31:32;23.60;62.70
22290;DHT22;11313;50.116;8.424;2023-10-13T00:34:01;23.60;62.60
22290;DHT22;11313;50.116;8.424;2023-10-13T00:36:36;23.60;62.70
22290;DHT22;11313;50.116;8.424;2023-10-13T00:39:02;23.60;62.60
22290;DHT22;11313;50.116;8.424;2023-10-13T00:41:32;23.60;62.60
22290;DHT22;11313;50.116;8.424;2023-10-13T00:44:17;23.60;62.60
22290;DHT22;11313;50.116;8.424;2023-10-13T00:46:43;23.50;62.60
22290;DHT22;11313;50.116;8.424;2023-10-13T00:49:10;23.50;62.60
22290;DHT22;11313;50.116;8.424;2023-10-13T00:51:41;23.60;62.70
22290;DHT22;11313;50.116;8.424;2023-10-13T00:54:13;23.50;62.60
22290;DHT22;11313;50.116;8.424;2023-10-13T00:56:39;23.50;62.60
22290;DHT22;11313;50.116;8.424;2023-10-13T00:59:11;23.50;62.60
22290;DHT22;11313;50.116;8.424;2023-10-13T01:01:39;23.50;62.60
22290;DHT22;11313;50.116;8.424;2023-10-13T01:04:07;23.50;62.50
22290;DHT22;11313;50.116;8.424;2023-10-13T01:06:34;23.50;62.50
22290;DHT22;11313;50.116;8.424;2023-10-13T01:09:10;23.50;62.60
22290;DHT22;11313;50.116;8.424;2023-10-13T01:11:46;23.50;62.60
22290;DHT22;11313;50.116;8.424;2023-10-13T01:14:14;23.50;62.50
22290;DHT22;11313;50.116;8.424;2023-10-13T01:16:44;23.50;62.50
22290;DHT22;11313;50.116;8.424;2023-10-13T01:19:16;23.50;62.50
22290;DHT22;11313;50.116;8.424;2023-10-13T01:21:50;23.50;62.50
22290;DHT22;11313;50.116;8.424;2023-10-13T01:24:15;23.50;62.50
22290;DHT22;11313;50.116;8.424;2023-10-13T01:26:44;23.50;62.50
22290;DHT22;11313;50.116;8.424;2023-10-13T01:29:10;23.50;62.50
22290;DHT22;11313;50.116;8.424;2023-10-13T01:31:40;23.50;62.50
22290;DHT22;11313;50.116;8.424;2023-10-13T01:34:12;23.50;62.50
22290;DHT22;11313;50.116;8.424;2023-10-13T01:36:38;23.50;62.60
22290;DHT22;11313;50.116;8.424;2023-10-13T01:39:05;23.50;62.50
22290;DHT22;11313;50.116;8.424;2023-10-13T01:41:31;23.50;62.50
22290;DHT22;11313;50.116;8.424;2023-10-13T01:43:57;23.50;62.50
22290;DHT22;11313;50.116;8.424;2023-10-13T01:46:23;23.50;62.50
22290;DHT22;11313;50.116;8.424;2023-10-13T01:48:48;23.50;62.50
22290;DHT22;11313;50.116;8.424;2023-10-13T01:51:14;23.50;62.50
22290;DHT22;11313;50.116;8.424;2023-10-13T01:53:40;23.50;62.50
22290;DHT22;11313;50.116;8.424;2023-10-13T01:56:09;23.50;62.50
22290;DHT22;11313;50.116;8.424;2023-10-13T01:58:38;23.50;62.50
22290;DHT22;11313;50.116;8.424;2023-10-13T02:01:08;23.50;62.50
22290;DHT22;11313;50.116;8.424;2023-10-13T02:03:34;23.50;62.50
22290;DHT22;11313;50.116;8.424;2023-10-13T02:06:02;23.40;62.40
22290;DHT22;11313;50.116;8.424;2023-10-13T02:08:30;23.50;62.50
22290;DHT22;11313;50.116;8.424;2023-10-13T02:10:57;23.50;62.50
22290;DHT22;11313;50.116;8.424;2023-10-13T02:13:24;23.50;62.50
22290;DHT22;11313;50.116;8.424;2023-10-13T02:15:54;23.40;62.40
22290;DHT22;11313;50.116;8.424;2023-10-13T02:18:22;23.50;62.50
22290;DHT22;11313;50.116;8.424;2023-10-13T02:21:06;23.50;62.50
22290;DHT22;11313;50.116;8.424;2023-10-13T02:23:39;23.50;62.50
22290;DHT22;11313;50.116;8.424;2023-10-13T02:26:09;23.40;62.40
22290;DHT22;11313;50.116;8.424;2023-10-13T02:28:46;23.50;62.50
22290;DHT22;11313;50.116;8.424;2023-10-13T02:31:17;23.40;62.40
22290;DHT22;11313;50.116;8.424;2023-10-13T02:33:44;23.50;63.20
22290;DHT22;11313;50.116;8.424;2023-10-13T02:36:11;23.40;62.40
22290;DHT22;11313;50.116;8.424;2023-10-13T02:38:44;23.40;62.40
22290;DHT22;11313;50.116;8.424;2023-10-13T02:41:13;23.40;62.40
22290;DHT22;11313;50.116;8.424;2023-10-13T02:43:44;23.40;62.40
22290;DHT22;11313;50.116;8.424;2023-10-13T02:46:10;23.40;62.40
22290;DHT22;11313;50.116;8.424;2023-10-13T02:48:35;23.40;62.40
22290;DHT22;11313;50.116;8.424;2023-10-13T02:51:08;23.40;62.40
22290;DHT22;11313;50.116;8.424;2023-10-13T02:53:44;23.40;62.40
22290;DHT22;11313;50.116;8.424;2023-10-13T02:56:16;23.40;62.40
22290;DHT22;11313;50.116;8.424;2023-10-13T02:58:52;23.40;62.40
22290;DHT22;11313;50.116;8.424;2023-10-13T03:01:22;23.40;62.40
22290;DHT22;11313;50.116;8.424;2023-10-13T03:03:53;23.40;62.40
22290;DHT22;11313;50.116;8.424;2023-10-13T03:06:24;23.40;62.40
22290;DHT22;11313;50.116;8.424;2023-10-13T03:09:01;23.40;62.40
22290;DHT22;11313;50.116;8.424;2023-10-13T03:11:39;23.40;62.40
22290;DHT22;11313;50.116;8.424;2023-10-13T03:14:10;23.40;62.40
22290;DHT22;11313;50.116;8.424;2023-10-13T03:16:50;23.40;62.40
22290;DHT22;11313;50.116;8.424;2023-10-13T03:19:16;23.40;62.40
22290;DHT22;11313;50.116;8.424;2023-10-13T03:21:44;23.40;62.40
22290;DHT22;11313;50.116;8.424;2023-10-13T03:24:13;23.40;62.40
22290;DHT22;11313;50.116;8.424;2023-10-13T03:26:39;23.40;62.40
22290;DHT22;11313;50.116;8.424;2023-10-13T03:29:10;23.40;62.40
22290;DHT22;11313;50.116;8.424;2023-10-13T03:31:40;23.40;62.40
22290;DHT22;11313;50.116;8.424;2023-10-13T03:34:06;23.40;62.40
22290;DHT22;11313;50.116;8.424;2023-10-13T03:36:37;23.40;62.40
22290;DHT22;11313;50.116;8.424;2023-10-13T03:39:22;23.40;62.40
22290;DHT22;11313;50.116;8.424;2023-10-13T03:41:53;23.40;62.40
22290;DHT22;11313;50.116;8.424;2023-10-13T03:44:19;23.40;62.30
22290;DHT22;11313;50.116;8.424;2023-10-13T03:46:45;23.40;62.30
22290;DHT22;11313;50.116;8.424;2023-10-13T03:49:14;23.40;62.30
22290;DHT22;11313;50.116;8.424;2023-10-13T03:51:40;23.40;62.40
22290;DHT22;11313;50.116;8.424;2023-10-13T03:54:05;23.40;62.30
22290;DHT22;11313;50.116;8.424;2023-10-13T03:56:34;23.40;62.40
22290;DHT22;11313;50.116;8.424;2023-10-13T03:59:08;23.30;62.30
22290;DHT22;11313;50.116;8.424;2023-10-13T04:01:44;23.30;62.30
22290;DHT22;11313;50.116;8.424;2023-10-13T04:04:28;23.40;62.30
22290;DHT22;11313;50.116;8.424;2023-10-13T04:07:14;23.40;62.30
22290;DHT22;11313;50.116;8.424;2023-10-13T04:09:59;23.40;62.30
22290;DHT22;11313;50.116;8.424;2023-10-13T04:12:43;23.30;62.30
22290;DHT22;11313;50.116;8.424;2023-10-13T04:15:27;23.30;62.30
22290;DHT22;11313;50.116;8.424;2023-10-13T04:18:02;23.30;62.30
22290;DHT22;11313;50.116;8.424;2023-10-13T04:20:40;23.30;62.30
22290;DHT22;11313;50.116;8.424;2023-10-13T04:23:11;23.30;62.20
22290;DHT22;11313;50.116;8.424;2023-10-13T04:25:47;23.30;62.30
22290;DHT22;11313;50.116;8.424;2023-10-13T04:28:16;23.30;62.30
22290;DHT22;11313;50.116;8.424;2023-10-13T04:31:00;23.30;62.20
22290;DHT22;11313;50.116;8.424;2023-10-13T04:33:37;23.30;62.30
22290;DHT22;11313;50.116;8.424;2023-10-13T04:36:23;23.30;62.30
22290;DHT22;11313;50.116;8.424;2023-10-13T04:38:53;23.30;62.20
22290;DHT22;11313;50.116;8.424;2023-10-13T04:44:16;23.30;62.30
22290;DHT22;11313;50.116;8.424;2023-10-13T04:47:13;23.30;63.00
22290;DHT22;11313;50.116;8.424;2023-10-13T04:49:47;23.30;62.30
22290;DHT22;11313;50.116;8.424;2023-10-13T04:52:12;23.30;62.30
22290;DHT22;11313;50.116;8.424;2023-10-13T04:54:42;23.30;62.20
22290;DHT22;11313;50.116;8.424;2023-10-13T04:57:17;23.30;62.30
22290;DHT22;11313;50.116;8.424;2023-10-13T04:59:50;23.30;62.30
22290;DHT22;11313;50.116;8.424;2023-10-13T05:02:35;23.30;62.20
22290;DHT22;11313;50.116;8.424;2023-10-13T05:05:19;23.30;62.20
22290;DHT22;11313;50.116;8.424;2023-10-13T05:07:51;23.30;62.30
22290;DHT22;11313;50.116;8.424;2023-10-13T05:10:36;23.30;62.30
22290;DHT22;11313;50.116;8.424;2023-10-13T05:13:20;23.30;62.20
22290;DHT22;11313;50.116;8.424;2023-10-13T05:16:04;23.30;62.30
22290;DHT22;11313;50.116;8.424;2023-10-13T05:18:49;23.30;62.20
22290;DHT22;11313;50.116;8.424;2023-10-13T05:21:33;23.30;62.30
22290;DHT22;11313;50.116;8.424;2023-10-13T05:24:17;23.30;62.20
22290;DHT22;11313;50.116;8.424;2023-10-13T05:27:01;23.30;62.30
22290;DHT22;11313;50.116;8.424;2023-10-13T05:29:48;23.30;62.20
22290;DHT22;11313;50.116;8.424;2023-10-13T05:32:33;23.30;62.20
22290;DHT22;11313;50.116;8.424;2023-10-13T05:35:20;23.30;62.20
22290;DHT22;11313;50.116;8.424;2023-10-13T05:38:04;23.30;63.00
22290;DHT22;11313;50.116;8.424;2023-10-13T05:41:02;23.30;62.30
22290;DHT22;11313;50.116;8.424;2023-10-13T05:43:47;23.30;62.20
22290;DHT22;11313;50.116;8.424;2023-10-13T05:46:31;23.30;62.20
22290;DHT22;11313;50.116;8.424;2023-10-13T05:49:05;23.30;62.20
22290;DHT22;11313;50.116;8.424;2023-10-13T05:51:36;23.30;62.20
22290;DHT22;11313;50.116;8.424;2023-10-13T05:54:06;23.30;62.20
22290;DHT22;11313;50.116;8.424;2023-10-13T05:56:41;23.30;62.20
22290;DHT22;11313;50.116;8.424;2023-10-13T05:59:25;23.30;62.20
22290;DHT22;11313;50.116;8.424;2023-10-13T06:02:10;23.30;62.20
22290;DHT22;11313;50.116;8.424;2023-10-13T06:04:56;23.30;62.20
22290;DHT22;11313;50.116;8.424;2023-10-13T06:07:40;23.30;62.20
22290;DHT22;11313;50.116;8.424;2023-10-13T06:10:24;23.30;62.20
22290;DHT22;11313;50.116;8.424;2023-10-13T06:13:08;23.30;62.20
22290;DHT22;11313;50.116;8.424;2023-10-13T06:15:52;23.30;62.20
22290;DHT22;11313;50.116;8.424;2023-10-13T06:18:36;23.30;62.20
22290;DHT22;11313;50.116;8.424;2023-10-13T06:21:21;23.30;62.20
22290;DHT22;11313;50.116;8.424;2023-10-13T06:24:06;23.20;62.20
22290;DHT22;11313;50.116;8.424;2023-10-13T06:26:50;23.30;62.20
22290;DHT22;11313;50.116;8.424;2023-10-13T06:29:34;23.30;62.20
22290;DHT22;11313;50.116;8.424;2023-10-13T06:32:00;23.30;62.20
22290;DHT22;11313;50.116;8.424;2023-10-13T06:34:27;23.30;62.20
22290;DHT22;11313;50.116;8.424;2023-10-13T06:37:13;23.20;62.10
22290;DHT22;11313;50.116;8.424;2023-10-13T06:40:08;23.30;62.20
22290;DHT22;11313;50.116;8.424;2023-10-13T06:42:51;23.30;62.20
22290;DHT22;11313;50.116;8.424;2023-10-13T06:45:18;23.20;62.20
22290;DHT22;11313;50.116;8.424;2023-10-13T06:47:44;23.30;62.20
22290;DHT22;11313;50.116;8.424;2023-10-13T06:50:11;23.30;62.20
22290;DHT22;11313;50.116;8.424;2023-10-13T06:52:45;23.30;62.20
22290;DHT22;11313;50.116;8.424;2023-10-13T06:55:15;23.30;62.20
22290;DHT22;11313;50.116;8.424;2023-10-13T06:57:49;23.30;62.20
22290;DHT22;11313;50.116;8.424;2023-10-13T07:00:17;23.20;62.10
22290;DHT22;11313;50.116;8.424;2023-10-13T07:02:53;23.20;62.10
22290;DHT22;11313;50.116;8.424;2023-10-13T07:05:18;23.30;62.20
22290;DHT22;11313;50.116;8.424;2023-10-13T07:07:45;23.30;62.20
22290;DHT22;11313;50.116;8.424;2023-10-13T07:10:11;23.20;62.10
22290;DHT22;11313;50.116;8.424;2023-10-13T07:12:38;23.30;62.10
22290;DHT22;11313;50.116;8.424;2023-10-13T07:15:09;23.30;62.20
22290;DHT22;11313;50.116;8.424;2023-10-13T07:17:48;23.20;62.10
22290;DHT22;11313;50.116;8.424;2023-10-13T07:20:20;23.30;62.10
22290;DHT22;11313;50.116;8.424;2023-10-13T07:22:54;23.20;62.10
22290;DHT22;11313;50.116;8.424;2023-10-13T07:25:23;23.30;62.10
22290;DHT22;11313;50.116;8.424;2023-10-13T07:27:50;23.20;62.10
22290;DHT22;11313;50.116;8.424;2023-10-13T07:30:16;23.30;62.10
22290;DHT22;11313;50.116;8.424;2023-10-13T07:32:46;23.20;62.00
22290;DHT22;11313;50.116;8.424;2023-10-13T07:35:15;23.20;62.10
22290;DHT22;11313;50.116;8.424;2023-10-13T07:37:43;23.20;62.10
22290;DHT22;11313;50.116;8.424;2023-10-13T07:40:09;23.20;62.10
22290;DHT22;11313;50.116;8.424;2023-10-13T07:42:53;23.20;62.10
22290;DHT22;11313;50.116;8.424;2023-10-13T07:45:28;23.20;62.00
22290;DHT22;11313;50.116;8.424;2023-10-13T07:48:12;23.20;62.00
22290;DHT22;11313;50.116;8.424;2023-10-13T07:50:44;23.20;62.00
22290;DHT22;11313;50.116;8.424;2023-10-13T07:53:11;23.20;62.00
22290;DHT22;11313;50.116;8.424;2023-10-13T07:55:49;23.20;62.00
22290;DHT22;11313;50.116;8.424;2023-10-13T07:58:23;23.20;62.00
22290;DHT22;11313;50.116;8.424;2023-10-13T08:00:52;23.20;62.00
22290;DHT22;11313;50.116;8.424;2023-10-13T08:03:34;23.20;62.00
22290;DHT22;11313;50.116;8.424;2023-10-13T08:06:05;23.20;62.00
22290;DHT22;11313;50.116;8.424;2023-10-13T08:08:32;23.20;62.00
22290;DHT22;11313;50.116;8.424;2023-10-13T08:11:14;23.20;62.10
22290;DHT22;11313;50.116;8.424;2023-10-13T08:13:53;23.20;62.00
22290;DHT22;11313;50.116;8.424;2023-10-13T08:16:30;23.20;61.90
22290;DHT22;11313;50.116;8.424;2023-10-13T08:19:25;23.20;62.00
22290;DHT22;11313;50.116;8.424;2023-10-13T08:21:58;23.20;62.00
22290;DHT22;11313;50.116;8.424;2023-10-13T08:24:27;23.20;62.00
22290;DHT22;11313;50.116;8.424;2023-10-13T08:27:02;23.20;62.00
22290;DHT22;11313;50.116;8.424;2023-10-13T08:29:44;23.20;62.00
22290;DHT22;11313;50.116;8.424;2023-10-13T08:32:19;23.20;61.90
22290;DHT22;11313;50.116;8.424;2023-10-13T08:34:58;23.20;62.00
22290;DHT22;11313;50.116;8.424;2023-10-13T08:37:26;23.20;62.00
22290;DHT22;11313;50.116;8.424;2023-10-13T08:39:56;23.20;62.00
22290;DHT22;11313;50.116;8.424;2023-10-13T08:42:34;23.20;62.00
22290;DHT22;11313;50.116;8.424;2023-10-13T08:45:10;23.20;62.10
22290;DHT22;11313;50.116;8.424;2023-10-13T08:48:12;23.20;61.90
22290;DHT22;11313;50.116;8.424;2023-10-13T08:50:50;23.20;61.90
22290;DHT22;11313;50.116;8.424;2023-10-13T08:53:27;23.20;61.90
22290;DHT22;11313;50.116;8.424;2023-10-13T08:56:09;23.20;61.90
22290;DHT22;11313;50.116;8.424;2023-10-13T08:58:41;23.20;62.00
22290;DHT22;11313;50.116;8.424;2023-10-13T09:01:36;23.20;62.00
22290;DHT22;11313;50.116;8.424;2023-10-13T09:04:15;23.20;61.90
22290;DHT22;11313;50.116;8.424;2023-10-13T09:12:15;23.20;62.10
22290;DHT22;11313;50.116;8.424;2023-10-13T09:14:50;23.20;61.90
22290;DHT22;11313;50.116;8.424;2023-10-13T09:17:26;23.20;62.00
22290;DHT22;11313;50.116;8.424;2023-10-13T09:20:06;23.20;62.00
22290;DHT22;11313;50.116;8.424;2023-10-13T09:22:51;23.20;61.90
22290;DHT22;11313;50.116;8.424;2023-10-13T09:25:35;23.30;61.90
22290;DHT22;11313;50.116;8.424;2023-10-13T09:28:11;23.20;61.90
22290;DHT22;11313;50.116;8.424;2023-10-13T09:30:57;23.20;61.90
22290;DHT22;11313;50.116;8.424;2023-10-13T09:33:28;23.20;61.90
22290;DHT22;11313;50.116;8.424;2023-10-13T09:36:01;23.20;61.90
22290;DHT22;11313;50.116;8.424;2023-10-13T09:38:33;23.20;61.90
22290;DHT22;11313;50.116;8.424;2023-10-13T09:41:00;23.20;61.90
22290;DHT22;11313;50.116;8.424;2023-10-13T09:43:43;23.20;61.90
22290;DHT22;11313;50.116;8.424;2023-10-13T09:46:10;23.30;61.90
22290;DHT22;11313;50.116;8.424;2023-10-13T09:48:45;23.20;61.90
22290;DHT22;11313;50.116;8.424;2023-10-13T09:51:13;23.20;61.90
22290;DHT22;11313;50.116;8.424;2023-10-13T09:53:40;23.20;61.90
22290;DHT22;11313;50.116;8.424;2023-10-13T09:58:55;23.20;61.90
22290;DHT22;11313;50.116;8.424;2023-10-13T10:01:30;23.30;62.00
22290;DHT22;11313;50.116;8.424;2023-10-13T10:04:08;23.20;61.90
22290;DHT22;11313;50.116;8.424;2023-10-13T10:06:36;23.20;61.90
22290;DHT22;11313;50.116;8.424;2023-10-13T10:09:09;23.30;62.00
22290;DHT22;11313;50.116;8.424;2023-10-13T10:14:16;23.30;61.90
22290;DHT22;11313;50.116;8.424;2023-10-13T10:16:53;23.30;62.00
22290;DHT22;11313;50.116;8.424;2023-10-13T10:19:25;23.30;62.00
22290;DHT22;11313;50.116;8.424;2023-10-13T10:22:01;23.20;61.90
22290;DHT22;11313;50.116;8.424;2023-10-13T10:24:30;23.30;62.10
22290;DHT22;11313;50.116;8.424;2023-10-13T10:26:56;23.30;62.00
22290;DHT22;11313;50.116;8.424;2023-10-13T10:29:21;23.30;62.10
22290;DHT22;11313;50.116;8.424;2023-10-13T10:31:47;23.30;62.00
22290;DHT22;11313;50.116;8.424;2023-10-13T10:34:14;23.30;62.00
22290;DHT22;11313;50.116;8.424;2023-10-13T10:36:46;23.30;62.00
22290;DHT22;11313;50.116;8.424;2023-10-13T10:39:15;23.30;61.90
22290;DHT22;11313;50.116;8.424;2023-10-13T10:41:42;23.30;62.00
22290;DHT22;11313;50.116;8.424;2023-10-13T10:44:12;23.30;62.00
22290;DHT22;11313;50.116;8.424;2023-10-13T10:46:56;23.30;62.00
22290;DHT22;11313;50.116;8.424;2023-10-13T10:49:27;23.30;62.00
22290;DHT22;11313;50.116;8.424;2023-10-13T10:52:01;23.30;62.00
22290;DHT22;11313;50.116;8.424;2023-10-13T10:54:30;23.30;62.00
22290;DHT22;11313;50.116;8.424;2023-10-13T10:56:57;23.30;61.90
22290;DHT22;11313;50.116;8.424;2023-10-13T10:59:36;23.30;62.00
22290;DHT22;11313;50.116;8.424;2023-10-13T11:02:06;23.30;62.00
22290;DHT22;11313;50.116;8.424;2023-10-13T11:04:32;23.30;62.00
22290;DHT22;11313;50.116;8.424;2023-10-13T11:07:07;23.30;62.00
22290;DHT22;11313;50.116;8.424;2023-10-13T11:09:34;23.30;62.00
22290;DHT22;11313;50.116;8.424;2023-10-13T11:14:39;23.30;62.00
22290;DHT22;11313;50.116;8.424;2023-10-13T11:17:05;23.30;62.00
22290;DHT22;11313;50.116;8.424;2023-10-13T11:19:40;23.30;62.00
22290;DHT22;11313;50.116;8.424;2023-10-13T11:22:14;23.30;61.90
22290;DHT22;11313;50.116;8.424;2023-10-13T11:24:59;23.30;62.00
22290;DHT22;11313;50.116;8.424;2023-10-13T11:27:31;23.30;61.90
22290;DHT22;11313;50.116;8.424;2023-10-13T11:30:13;23.30;62.70
22290;DHT22;11313;50.116;8.424;2023-10-13T11:32:43;23.30;62.00
22290;DHT22;11313;50.116;8.424;2023-10-13T11:35:10;23.30;61.90
22290;DHT22;11313;50.116;8.424;2023-10-13T11:37:49;23.30;61.90
22290;DHT22;11313;50.116;8.424;2023-10-13T11:40:33;23.30;61.90
22290;DHT22;11313;50.116;8.424;2023-10-13T11:43:17;23.30;61.90
22290;DHT22;11313;50.116;8.424;2023-10-13T11:45:50;23.30;61.90
22290;DHT22;11313;50.116;8.424;2023-10-13T11:48:39;23.30;62.00
22290;DHT22;11313;50.116;8.424;2023-10-13T11:51:08;23.30;61.90
22290;DHT22;11313;50.116;8.424;2023-10-13T11:53:34;23.30;61.90
22290;DHT22;11313;50.116;8.424;2023-10-13T11:56:00;23.30;61.90
22290;DHT22;11313;50.116;8.424;2023-10-13T11:58:26;23.30;61.90
22290;DHT22;11313;50.116;8.424;2023-10-13T12:00:54;23.30;62.10
22290;DHT22;11313;50.116;8.424;2023-10-13T12:03:26;23.30;62.00
22290;DHT22;11313;50.116;8.424;2023-10-13T12:06:11;23.30;61.90
22290;DHT22;11313;50.116;8.424;2023-10-13T12:09:01;23.30;62.10
22290;DHT22;11313;50.116;8.424;2023-10-13T12:11:46;23.30;61.90
22290;DHT22;11313;50.116;8.424;2023-10-13T12:14:14;23.30;61.90
22290;DHT22;11313;50.116;8.424;2023-10-13T12:16:47;23.30;62.00
22290;DHT22;11313;50.116;8.424;2023-10-13T12:19:17;23.30;61.90
22290;DHT22;11313;50.116;8.424;2023-10-13T12:21:46;23.30;61.90
22290;DHT22;11313;50.116;8.424;2023-10-13T12:24:13;23.30;61.90
22290;DHT22;11313;50.116;8.424;2023-10-13T12:27:06;23.30;61.90
22290;DHT22;11313;50.116;8.424;2023-10-13T12:29:47;23.30;61.90
22290;DHT22;11313;50.116;8.424;2023-10-13T12:32:14;23.30;61.90
22290;DHT22;11313;50.116;8.424;2023-10-13T12:34:41;23.30;61.90
22290;DHT22;11313;50.116;8.424;2023-10-13T12:37:29;23.30;61.90
22290;DHT22;11313;50.116;8.424;2023-10-13T12:40:14;23.30;61.90
22290;DHT22;11313;50.116;8.424;2023-10-13T12:42:58;23.30;61.90
22290;DHT22;11313;50.116;8.424;2023-10-13T12:45:44;23.30;61.90
22290;DHT22;11313;50.116;8.424;2023-10-13T12:48:29;23.30;61.90
22290;DHT22;11313;50.116;8.424;2023-10-13T12:51:13;23.30;62.00
22290;DHT22;11313;50.116;8.424;2023-10-13T12:53:50;23.30;61.90
22290;DHT22;11313;50.116;8.424;2023-10-13T12:56:16;23.30;62.00
22290;DHT22;11313;50.116;8.424;2023-10-13T12:58:43;23.30;62.00
22290;DHT22;11313;50.116;8.424;2023-10-13T13:01:22;23.30;62.00
22290;DHT22;11313;50.116;8.424;2023-10-13T13:03:51;23.30;61.90
22290;DHT22;11313;50.116;8.424;2023-10-13T13:06:23;23.30;61.90
22290;DHT22;11313;50.116;8.424;2023-10-13T13:08:56;23.30;62.00
22290;DHT22;11313;50.116;8.424;2023-10-13T13:11:22;23.30;62.00
22290;DHT22;11313;50.116;8.424;2023-10-13T13:13:48;23.30;62.00
22290;DHT22;11313;50.116;8.424;2023-10-13T13:16:14;23.30;61.90
22290;DHT22;11313;50.116;8.424;2023-10-13T13:18:40;23.30;61.90
22290;DHT22;11313;50.116;8.424;2023-10-13T13:21:05;23.30;61.90
22290;DHT22;11313;50.116;8.424;2023-10-13T13:23:32;23.30;61.90
22290;DHT22;11313;50.116;8.424;2023-10-13T13:26:00;23.30;62.00
22290;DHT22;11313;50.116;8.424;2023-10-13T13:28:26;23.30;61.90
22290;DHT22;11313;50.116;8.424;2023-10-13T13:30:54;23.30;62.00
22290;DHT22;11313;50.116;8.424;2023-10-13T13:33:20;23.30;61.90
22290;DHT22;11313;50.116;8.424;2023-10-13T13:35:54;23.30;61.90
22290;DHT22;11313;50.116;8.424;2023-10-13T13:38:19;23.30;61.90
22290;DHT22;11313;50.116;8.424;2023-10-13T13:40:48;23.30;61.90
22290;DHT22;11313;50.116;8.424;2023-10-13T13:43:20;23.30;62.00
22290;DHT22;11313;50.116;8.424;2023-10-13T13:46:04;23.30;62.00
22290;DHT22;11313;50.116;8.424;2023-10-13T13:48:38;23.40;62.00
22290;DHT22;11313;50.116;8.424;2023-10-13T13:51:04;23.30;61.90
22290;DHT22;11313;50.116;8.424;2023-10-13T13:53:31;23.30;61.90
22290;DHT22;11313;50.116;8.424;2023-10-13T13:56:03;23.30;62.00
22290;DHT22;11313;50.116;8.424;2023-10-13T13:58:30;23.30;62.00
22290;DHT22;11313;50.116;8.424;2023-10-13T14:01:02;23.30;62.00
22290;DHT22;11313;50.116;8.424;2023-10-13T14:03:39;23.30;62.00
22290;DHT22;11313;50.116;8.424;2023-10-13T14:06:14;23.30;61.90
22290;DHT22;11313;50.116;8.424;2023-10-13T14:08:54;23.30;62.00
22290;DHT22;11313;50.116;8.424;2023-10-13T14:11:26;23.30;62.00
22290;DHT22;11313;50.116;8.424;2023-10-13T14:14:12;23.40;62.10
22290;DHT22;11313;50.116;8.424;2023-10-13T14:16:42;23.30;62.00
22290;DHT22;11313;50.116;8.424;2023-10-13T14:19:15;23.40;62.10
22290;DHT22;11313;50.116;8.424;2023-10-13T14:21:54;23.30;62.00
22290;DHT22;11313;50.116;8.424;2023-10-13T14:24:22;23.30;62.10
22290;DHT22;11313;50.116;8.424;2023-10-13T14:26:59;23.30;62.00
22290;DHT22;11313;50.116;8.424;2023-10-13T14:29:40;23.40;62.80
22290;DHT22;11313;50.116;8.424;2023-10-13T14:32:13;23.40;62.10
22290;DHT22;11313;50.116;8.424;2023-10-13T14:34:40;23.40;62.10
22290;DHT22;11313;50.116;8.424;2023-10-13T14:37:06;23.30;62.00
22290;DHT22;11313;50.116;8.424;2023-10-13T14:39:32;23.40;62.70
22290;DHT22;11313;50.116;8.424;2023-10-13T14:42:03;23.40;62.10
22290;DHT22;11313;50.116;8.424;2023-10-13T14:44:31;23.40;62.10
22290;DHT22;11313;50.116;8.424;2023-10-13T14:46:57;23.30;62.00
22290;DHT22;11313;50.116;8.424;2023-10-13T14:49:22;23.30;62.10
22290;DHT22;11313;50.116;8.424;2023-10-13T14:51:48;23.40;62.10
22290;DHT22;11313;50.116;8.424;2023-10-13T14:54:16;23.40;62.10
22290;DHT22;11313;50.116;8.424;2023-10-13T14:56:42;23.30;62.00
22290;DHT22;11313;50.116;8.424;2023-10-13T14:59:08;23.40;62.10
22290;DHT22;11313;50.116;8.424;2023-10-13T15:01:40;23.30;62.00
22290;DHT22;11313;50.116;8.424;2023-10-13T15:04:06;23.40;62.10
22290;DHT22;11313;50.116;8.424;2023-10-13T15:06:31;23.40;62.10
22290;DHT22;11313;50.116;8.424;2023-10-13T15:08:58;23.40;62.10
22290;DHT22;11313;50.116;8.424;2023-10-13T15:11:25;23.40;62.10
22290;DHT22;11313;50.116;8.424;2023-10-13T15:13:53;23.40;62.10
22290;DHT22;11313;50.116;8.424;2023-10-13T15:16:21;23.40;62.10
22290;DHT22;11313;50.116;8.424;2023-10-13T15:18:48;23.40;62.10
22290;DHT22;11313;50.116;8.424;2023-10-13T15:21:27;23.40;62.80
22290;DHT22;11313;50.116;8.424;2023-10-13T15:24:03;23.30;62.10
22290;DHT22;11313;50.116;8.424;2023-10-13T15:26:32;23.40;62.10
22290;DHT22;11313;50.116;8.424;2023-10-13T15:29:04;23.40;62.20
22290;DHT22;11313;50.116;8.424;2023-10-13T15:31:37;23.40;62.10
22290;DHT22;11313;50.116;8.424;2023-10-13T15:34:04;23.40;62.10
22290;DHT22;11313;50.116;8.424;2023-10-13T15:36:33;23.40;62.10
22290;DHT22;11313;50.116;8.424;2023-10-13T15:38:58;23.40;62.10
22290;DHT22;11313;50.116;8.424;2023-10-13T15:41:25;23.40;62.10
22290;DHT22;11313;50.116;8.424;2023-10-13T15:43:51;23.40;62.20
22290;DHT22;11313;50.116;8.424;2023-10-13T15:46:18;23.30;62.00
22290;DHT22;11313;50.116;8.424;2023-10-13T15:48:46;23.40;62.10
22290;DHT22;11313;50.116;8.424;2023-10-13T15:51:12;23.40;62.10
22290;DHT22;11313;50.116;8.424;2023-10-13T15:53:38;23.40;62.10
22290;DHT22;11313;50.116;8.424;2023-10-13T15:56:04;23.40;62.10
22290;DHT22;11313;50.116;8.424;2023-10-13T15:58:40;23.40;62.20
22290;DHT22;11313;50.116;8.424;2023-10-13T16:01:09;23.40;62.10
22290;DHT22;11313;50.116;8.424;2023-10-13T16:03:35;23.40;62.10
22290;DHT22;11313;50.116;8.424;2023-10-13T16:06:03;23.40;62.10
22290;DHT22;11313;50.116;8.424;2023-10-13T16:08:36;23.40;62.10
22290;DHT22;11313;50.116;8.424;2023-10-13T16:11:06;23.40;62.10
22290;DHT22;11313;50.116;8.424;2023-10-13T16:13:36;23.40;62.20
22290;DHT22;11313;50.116;8.424;2023-10-13T16:16:05;23.40;62.10
22290;DHT22;11313;50.116;8.424;2023-10-13T16:18:31;23.40;62.10
22290;DHT22;11313;50.116;8.424;2023-10-13T16:21:00;23.40;62.10
22290;DHT22;11313;50.116;8.424;2023-10-13T16:23:29;23.40;62.10